Time;durP1;ratioP1;P1;durP2;ratioP2;P2;SDS_P1;SDS_P2;PMS_P1;PMS_P2;Temp;Humidity;BMP_temperature;BMP_pressure;BME280_temperature;BME280_humidity;BME280_pressure;Samples;Min_cycle;Max_cycle;Signal;HPM_P1;HPM_P2
2022/12/06 00:01:31;;;;;;;21.63;7.95;;;;;;;;;;5022343;28;20021;-69
2022/12/06 00:03:57;;;;;;;18.70;8.93;;;;;;;;;;5016900;28;20037;-68
2022/12/06 00:06:23;;;;;;;18.85;8.90;;;;;;;;;;5013333;28;20022;-68
2022/12/06 00:08:48;;;;;;;16.85;8.88;;;;;;;;;;5011798;28;20022;-66
2022/12/06 00:11:15;;;;;;;19.05;9.52;;;;;;;;;;5016311;28;20041;-68
2022/12/06 00:13:41;;;;;;;18.58;8.38;;;;;;;;;;5010708;28;20506;-67
2022/12/06 00:16:08;;;;;;;14.13;7.90;;;;;;;;;;5019069;28;20140;-66
2022/12/06 00:18:34;;;;;;;18.30;8.88;;;;;;;;;;5015634;28;20387;-69
2022/12/06 00:21:05;;;;;;;17.73;8.30;;;;;;;;;;5016398;28;20422;-68
2022/12/06 00:23:31;;;;;;;17.10;8.75;;;;;;;;;;5011977;28;20018;-68
2022/12/06 00:25:58;;;;;;;18.60;9.20;;;;;;;;;;5012034;28;20037;-68
2022/12/06 00:28:24;;;;;;;17.70;8.10;;;;;;;;;;5008005;28;20464;-69
2022/12/06 00:30:49;;;;;;;18.88;7.72;;;;;;;;;;5012393;28;20504;-66
2022/12/06 00:33:14;;;;;;;16.85;8.07;;;;;;;;;;5012258;28;20168;-68
2022/12/06 00:35:39;;;;;;;15.68;7.93;;;;;;;;;;5010058;28;20087;-69
2022/12/06 00:38:04;;;;;;;16.95;8.80;;;;;;;;;;5011909;28;20093;-70
2022/12/06 00:40:30;;;;;;;16.60;8.23;;;;;;;;;;5010887;28;20017;-65
2022/12/06 00:42:55;;;;;;;14.45;8.10;;;;;;;;;;5006332;28;20061;-70
2022/12/06 00:45:20;;;;;;;17.70;8.73;;;;;;;;;;5011578;28;20391;-67
2022/12/06 00:47:45;;;;;;;18.20;8.27;;;;;;;;;;5011474;28;20049;-68
2022/12/06 00:50:11;;;;;;;17.35;8.52;;;;;;;;;;5011757;28;20028;-68
2022/12/06 00:52:36;;;;;;;19.90;8.18;;;;;;;;;;5011157;28;20627;-68
2022/12/06 00:55:01;;;;;;;16.38;7.88;;;;;;;;;;5012031;28;20025;-68
2022/12/06 00:57:26;;;;;;;17.70;8.43;;;;;;;;;;5017066;28;20009;-67
2022/12/06 00:59:52;;;;;;;18.20;9.02;;;;;;;;;;5023092;28;20017;-69
2022/12/06 01:02:17;;;;;;;17.15;7.57;;;;;;;;;;5012892;28;20026;-65
2022/12/06 01:04:42;;;;;;;14.75;7.93;;;;;;;;;;5010571;28;20120;-69
2022/12/06 01:07:07;;;;;;;13.95;8.05;;;;;;;;;;5013080;28;20025;-69
2022/12/06 01:09:32;;;;;;;16.77;8.05;;;;;;;;;;5019657;28;20556;-67
2022/12/06 01:11:58;;;;;;;15.73;7.57;;;;;;;;;;5010945;28;20097;-69
2022/12/06 01:14:23;;;;;;;16.45;7.53;;;;;;;;;;5010947;28;20071;-69
2022/12/06 01:16:48;;;;;;;12.18;7.07;;;;;;;;;;5010836;28;20105;-69
2022/12/06 01:19:14;;;;;;;13.15;7.68;;;;;;;;;;5011265;28;20376;-69
2022/12/06 01:21:39;;;;;;;16.13;7.50;;;;;;;;;;5010359;28;20054;-69
2022/12/06 01:24:04;;;;;;;18.75;8.25;;;;;;;;;;5010894;28;20145;-68
2022/12/06 01:26:30;;;;;;;16.60;7.55;;;;;;;;;;5010501;28;20148;-69
2022/12/06 01:28:56;;;;;;;14.90;8.35;;;;;;;;;;5010547;28;20381;-66
2022/12/06 01:31:22;;;;;;;14.48;7.90;;;;;;;;;;5009000;28;20101;-67
2022/12/06 01:33:47;;;;;;;12.65;6.97;;;;;;;;;;5006948;28;20496;-68
2022/12/06 01:36:19;;;;;;;16.55;7.53;;;;;;;;;;5009696;28;20025;-67
2022/12/06 01:38:51;;;;;;;14.98;7.80;;;;;;;;;;5010680;28;20480;-68
2022/12/06 01:41:17;;;;;;;16.52;7.72;;;;;;;;;;5010414;28;20022;-65
2022/12/06 01:43:43;;;;;;;16.77;7.97;;;;;;;;;;5010656;28;20456;-68
2022/12/06 01:46:14;;;;;;;11.77;6.97;;;;;;;;;;5010395;28;20026;-65
2022/12/06 01:48:40;;;;;;;14.32;7.38;;;;;;;;;;5014438;28;20563;-67
2022/12/06 01:51:08;;;;;;;16.90;8.40;;;;;;;;;;5000285;28;20040;-68
2022/12/06 01:53:34;;;;;;;16.33;8.40;;;;;;;;;;5010036;28;20050;-70
2022/12/06 01:56:00;;;;;;;15.23;7.40;;;;;;;;;;5010207;28;20054;-67
2022/12/06 01:58:29;;;;;;;13.82;7.57;;;;;;;;;;5017707;28;20014;-68
2022/12/06 02:00:54;;;;;;;18.55;7.63;;;;;;;;;;5020305;28;20022;-68
2022/12/06 02:03:21;;;;;;;17.00;8.10;;;;;;;;;;5010232;28;20100;-66
2022/12/06 02:05:47;;;;;;;15.55;7.13;;;;;;;;;;5009529;28;20037;-68
2022/12/06 02:08:13;;;;;;;15.68;7.55;;;;;;;;;;5019810;28;20021;-68
2022/12/06 02:10:38;;;;;;;17.67;7.60;;;;;;;;;;5010104;28;20030;-65
2022/12/06 02:13:04;;;;;;;14.73;7.82;;;;;;;;;;5010189;28;20030;-68
2022/12/06 02:15:50;;;;;;;14.45;7.53;;;;;;;;;;5009932;28;20026;-68
2022/12/06 02:18:21;;;;;;;16.35;7.45;;;;;;;;;;5004297;28;20272;-68
2022/12/06 02:20:51;;;;;;;15.60;7.40;;;;;;;;;;5009617;28;20033;-67
2022/12/06 02:23:16;;;;;;;12.80;7.03;;;;;;;;;;5010376;28;20021;-68
2022/12/06 02:25:53;;;;;;;13.93;7.88;;;;;;;;;;5009828;28;20021;-63
2022/12/06 02:28:30;;;;;;;15.02;7.45;;;;;;;;;;5009055;28;20046;-66
2022/12/06 02:31:03;;;;;;;15.10;7.40;;;;;;;;;;5008616;28;20399;-68
2022/12/06 02:33:41;;;;;;;16.75;6.97;;;;;;;;;;5010278;28;20088;-67
2022/12/06 02:36:10;;;;;;;17.98;7.90;;;;;;;;;;5009033;28;20395;-66
2022/12/06 02:38:42;;;;;;;12.55;6.63;;;;;;;;;;5009657;28;20566;-67
2022/12/06 02:41:10;;;;;;;15.40;7.10;;;;;;;;;;5009800;28;20480;-67
2022/12/06 02:43:45;;;;;;;15.20;7.55;;;;;;;;;;5007425;28;20018;-67
2022/12/06 02:46:11;;;;;;;13.50;6.90;;;;;;;;;;5009369;28;20022;-65
2022/12/06 02:48:36;;;;;;;18.00;7.97;;;;;;;;;;5009361;28;20283;-67
2022/12/06 02:51:04;;;;;;;12.43;6.18;;;;;;;;;;5009457;28;20048;-68
2022/12/06 02:53:31;;;;;;;15.47;8.10;;;;;;;;;;5009611;28;20026;-67
2022/12/06 02:55:57;;;;;;;14.07;7.35;;;;;;;;;;5009577;28;20036;-69
2022/12/06 02:58:22;;;;;;;13.35;6.75;;;;;;;;;;5017261;28;20157;-65
2022/12/06 03:00:58;;;;;;;14.30;7.30;;;;;;;;;;5019366;28;20019;-68
2022/12/06 03:03:42;;;;;;;15.25;7.03;;;;;;;;;;5009014;28;20471;-66
2022/12/06 03:06:07;;;;;;;13.35;7.63;;;;;;;;;;5009166;28;20499;-68
2022/12/06 03:08:42;;;;;;;15.98;7.70;;;;;;;;;;5019116;28;20025;-68
2022/12/06 03:11:07;;;;;;;15.02;7.57;;;;;;;;;;5009363;28;20071;-65
2022/12/06 03:13:32;;;;;;;18.50;7.45;;;;;;;;;;5009657;28;20022;-68
2022/12/06 03:16:00;;;;;;;12.73;7.18;;;;;;;;;;5009682;28;20105;-68
2022/12/06 03:18:30;;;;;;;14.18;7.28;;;;;;;;;;5009240;28;20041;-67
2022/12/06 03:21:03;;;;;;;12.45;7.07;;;;;;;;;;5009569;28;20036;-69
2022/12/06 03:23:30;;;;;;;13.68;6.90;;;;;;;;;;5008885;28;20014;-67
2022/12/06 03:25:58;;;;;;;16.00;7.75;;;;;;;;;;5009241;28;20041;-66
2022/12/06 03:28:23;;;;;;;20.58;7.18;;;;;;;;;;5001836;28;20030;-68
2022/12/06 03:30:50;;;;;;;13.57;7.13;;;;;;;;;;5011129;28;20029;-67
2022/12/06 03:33:17;;;;;;;12.30;6.63;;;;;;;;;;5004648;28;20472;-68
2022/12/06 03:35:44;;;;;;;19.23;7.95;;;;;;;;;;5014987;28;20391;-69
2022/12/06 03:38:11;;;;;;;14.02;7.10;;;;;;;;;;5007718;28;20087;-67
2022/12/06 03:40:38;;;;;;;16.45;7.65;;;;;;;;;;5009174;28;20018;-66
2022/12/06 03:43:04;;;;;;;12.55;7.40;;;;;;;;;;5010580;28;20018;-68
2022/12/06 03:45:35;;;;;;;13.07;7.15;;;;;;;;;;5013180;28;20033;-67
2022/12/06 03:48:00;;;;;;;16.00;7.20;;;;;;;;;;5012641;28;20022;-66
2022/12/06 03:50:28;;;;;;;20.50;8.23;;;;;;;;;;5013035;28;20164;-70
2022/12/06 03:52:54;;;;;;;13.85;7.70;;;;;;;;;;5012847;28;20025;-68
2022/12/06 03:55:19;;;;;;;16.92;8.25;;;;;;;;;;5013332;28;20037;-64
2022/12/06 03:57:44;;;;;;;15.63;8.90;;;;;;;;;;5022117;28;20103;-68
2022/12/06 04:00:10;;;;;;;17.23;8.10;;;;;;;;;;5023314;28;20156;-68
2022/12/06 04:02:35;;;;;;;17.40;8.82;;;;;;;;;;5013204;28;20029;-68
2022/12/06 04:05:00;;;;;;;17.23;7.40;;;;;;;;;;5012762;28;20029;-68
2022/12/06 04:07:25;;;;;;;14.32;7.63;;;;;;;;;;5016928;28;20022;-68
2022/12/06 04:09:51;;;;;;;13.98;7.68;;;;;;;;;;5019022;28;20026;-68
2022/12/06 04:15:00;;;;;;;17.45;8.80;;;;;;;;;;5013297;28;20541;-68
2022/12/06 04:20:09;;;;;;;13.98;7.45;;;;;;;;;;5013448;28;20029;-69
2022/12/06 04:25:18;;;;;;;15.65;7.78;;;;;;;;;;5001372;28;20076;-68
2022/12/06 04:38:42;;;;;;;17.92;8.55;;;;;;;;;;5004427;28;20032;-68
2022/12/06 04:41:08;;;;;;;18.90;8.80;;;;;;;;;;5012075;28;20068;-68
2022/12/06 04:43:42;;;;;;;19.70;9.10;;;;;;;;;;5011712;28;20303;-65
2022/12/06 04:46:11;;;;;;;16.27;8.30;;;;;;;;;;5013281;28;20037;-66
2022/12/06 04:48:37;;;;;;;16.70;7.45;;;;;;;;;;5012734;28;20539;-65
2022/12/06 04:51:02;;;;;;;18.05;7.80;;;;;;;;;;5012741;28;20107;-68
2022/12/06 04:53:27;;;;;;;18.33;7.93;;;;;;;;;;5012456;28;20045;-69
2022/12/06 04:55:53;;;;;;;16.17;8.77;;;;;;;;;;5012685;28;20070;-68
2022/12/06 04:58:18;;;;;;;20.15;9.38;;;;;;;;;;5018710;28;20032;-69
2022/12/06 05:00:43;;;;;;;18.15;8.05;;;;;;;;;;5022185;28;20018;-66
2022/12/06 05:03:12;;;;;;;22.20;8.57;;;;;;;;;;5012341;28;20099;-70
2022/12/06 05:05:37;;;;;;;17.80;7.88;;;;;;;;;;5013802;28;20042;-65
2022/12/06 05:08:03;;;;;;;17.45;7.68;;;;;;;;;;5021357;28;20039;-67
2022/12/06 05:10:28;;;;;;;15.93;8.13;;;;;;;;;;5013087;28;20026;-66
2022/12/06 05:12:53;;;;;;;19.42;8.95;;;;;;;;;;5011518;28;20092;-65
2022/12/06 05:15:18;;;;;;;14.32;7.75;;;;;;;;;;5012282;28;20140;-68
2022/12/06 05:17:44;;;;;;;17.25;7.43;;;;;;;;;;5012234;28;20100;-66
2022/12/06 05:20:09;;;;;;;16.52;7.10;;;;;;;;;;5012075;28;20364;-68
2022/12/06 05:22:34;;;;;;;18.88;8.45;;;;;;;;;;5011072;28;20373;-67
2022/12/06 05:24:59;;;;;;;17.95;8.63;;;;;;;;;;5017227;28;20037;-68
2022/12/06 05:27:25;;;;;;;16.67;8.50;;;;;;;;;;5012674;28;20417;-65
2022/12/06 05:29:50;;;;;;;18.55;8.55;;;;;;;;;;5011993;28;20451;-69
2022/12/06 05:32:15;;;;;;;16.52;7.85;;;;;;;;;;5007200;28;20437;-67
2022/12/06 05:34:40;;;;;;;24.23;7.68;;;;;;;;;;5011832;28;20026;-67
2022/12/06 05:37:06;;;;;;;18.40;7.97;;;;;;;;;;5012930;28;20034;-67
2022/12/06 05:39:31;;;;;;;21.42;8.88;;;;;;;;;;5010954;28;20063;-67
2022/12/06 05:41:56;;;;;;;20.52;7.80;;;;;;;;;;5009416;28;20067;-67
2022/12/06 05:44:21;;;;;;;18.13;9.02;;;;;;;;;;5009955;28;20014;-67
2022/12/06 05:46:47;;;;;;;17.92;9.45;;;;;;;;;;5014388;28;20060;-68
2022/12/06 05:49:12;;;;;;;19.02;8.40;;;;;;;;;;5009363;28;20038;-66
2022/12/06 05:51:37;;;;;;;18.80;8.15;;;;;;;;;;5009858;28;20084;-70
2022/12/06 05:54:05;;;;;;;18.98;7.78;;;;;;;;;;5021873;28;20068;-70
2022/12/06 05:56:30;;;;;;;18.00;7.97;;;;;;;;;;5022027;28;20021;-68
2022/12/06 05:58:56;;;;;;;20.08;9.07;;;;;;;;;;5013065;28;20041;-68
2022/12/06 06:01:21;;;;;;;20.05;8.75;;;;;;;;;;5011237;28;20018;-68
2022/12/06 06:03:47;;;;;;;17.23;7.70;;;;;;;;;;5011188;28;20032;-70
2022/12/06 06:06:12;;;;;;;31.85;9.98;;;;;;;;;;5004628;28;20502;-66
2022/12/06 06:08:38;;;;;;;21.05;8.68;;;;;;;;;;5016352;28;20022;-68
2022/12/06 06:11:03;;;;;;;22.55;8.70;;;;;;;;;;5021181;28;20034;-69
2022/12/06 06:13:29;;;;;;;20.17;8.18;;;;;;;;;;5022117;28;20029;-68
2022/12/06 06:15:54;;;;;;;21.02;8.65;;;;;;;;;;5016289;28;20041;-68
2022/12/06 06:18:20;;;;;;;21.10;8.65;;;;;;;;;;5010101;28;20054;-69
2022/12/06 06:20:49;;;;;;;22.10;8.35;;;;;;;;;;5010099;28;20057;-70
2022/12/06 06:23:14;;;;;;;;;;;;;;;;;;5010217;28;20030;-69
2022/12/06 06:25:39;;;;;;;18.50;8.63;;;;;;;;;;5009639;28;19916;-70
2022/12/06 06:28:04;;;;;;;19.80;7.85;;;;;;;;;;5009809;28;20021;-70
2022/12/06 06:30:30;;;;;;;19.13;8.55;;;;;;;;;;5009110;28;20456;-70
2022/12/06 06:32:55;;;;;;;22.52;9.63;;;;;;;;;;5010819;28;20627;-69
2022/12/06 06:35:20;;;;;;;25.45;8.95;;;;;;;;;;5019479;28;20547;-66
2022/12/06 06:37:47;;;;;;;19.27;8.25;;;;;;;;;;5009561;28;20052;-69
2022/12/06 06:40:12;;;;;;;16.38;8.00;;;;;;;;;;5010178;28;20387;-68
2022/12/06 06:42:38;;;;;;;22.77;8.07;;;;;;;;;;5007986;28;20511;-67
2022/12/06 06:45:03;;;;;;;19.10;7.60;;;;;;;;;;5008680;28;20026;-69
2022/12/06 06:47:28;;;;;;;21.27;8.32;;;;;;;;;;5012761;28;20014;-68
2022/12/06 06:49:54;;;;;;;20.45;8.93;;;;;;;;;;5012986;28;20571;-69
2022/12/06 06:52:19;;;;;;;20.52;7.63;;;;;;;;;;5011689;28;20029;-69
2022/12/06 06:54:44;;;;;;;18.50;8.00;;;;;;;;;;5008844;28;20014;-69
2022/12/06 06:57:09;;;;;;;18.15;7.47;;;;;;;;;;5014702;28;20393;-68
2022/12/06 06:59:35;;;;;;;21.48;8.63;;;;;;;;;;5013794;28;20396;-69
2022/12/06 07:02:00;;;;;;;16.30;7.38;;;;;;;;;;5014328;28;20010;-68
2022/12/06 07:04:25;;;;;;;18.38;8.38;;;;;;;;;;5023995;28;20059;-70
2022/12/06 07:06:50;;;;;;;17.75;6.90;;;;;;;;;;5018830;28;20033;-70
2022/12/06 07:09:16;;;;;;;19.73;7.20;;;;;;;;;;5009169;28;20030;-69
2022/12/06 07:11:41;;;;;;;17.67;7.13;;;;;;;;;;5010970;28;20084;-70
2022/12/06 07:14:06;;;;;;;15.55;6.57;;;;;;;;;;5009193;28;20113;-70
2022/12/06 07:16:31;;;;;;;15.65;7.00;;;;;;;;;;5009004;28;20672;-67
2022/12/06 07:18:57;;;;;;;14.27;6.45;;;;;;;;;;5013155;28;20021;-69
2022/12/06 07:21:22;;;;;;;16.58;6.75;;;;;;;;;;5012711;28;20464;-69
2022/12/06 07:23:48;;;;;;;18.92;7.30;;;;;;;;;;5012465;28;20392;-69
2022/12/06 07:26:14;;;;;;;15.57;7.00;;;;;;;;;;5012610;28;20029;-69
2022/12/06 07:28:41;;;;;;;19.83;7.72;;;;;;;;;;5012529;28;20104;-66
2022/12/06 07:31:32;;;;;;;19.27;7.63;;;;;;;;;;5013049;28;20030;-67
2022/12/06 07:33:59;;;;;;;17.00;6.63;;;;;;;;;;5010209;28;20030;-69
2022/12/06 07:36:25;;;;;;;18.70;7.70;;;;;;;;;;5014709;28;20103;-68
2022/12/06 07:38:53;;;;;;;18.90;7.60;;;;;;;;;;5012864;28;20101;-69
2022/12/06 07:46:47;;;;;;;16.38;7.65;;;;;;;;;;5012480;28;20028;-70
2022/12/06 07:49:14;;;;;;;20.98;8.05;;;;;;;;;;5013040;28;20037;-70
2022/12/06 07:51:40;;;;;;;18.80;7.88;;;;;;;;;;5012526;28;20021;-68
2022/12/06 07:54:05;;;;;;;18.33;7.25;;;;;;;;;;5012106;28;20040;-68
2022/12/06 07:56:30;;;;;;;18.13;8.43;;;;;;;;;;5011429;28;20017;-68
2022/12/06 07:58:55;;;;;;;19.45;8.75;;;;;;;;;;5014546;28;20017;-69
2022/12/06 08:01:22;;;;;;;17.50;7.03;;;;;;;;;;5012548;28;20026;-68
2022/12/06 08:03:47;;;;;;;17.30;7.57;;;;;;;;;;5010543;28;20427;-67
2022/12/06 08:06:12;;;;;;;17.83;7.57;;;;;;;;;;5012141;28;20163;-68
2022/12/06 08:08:37;;;;;;;16.75;8.13;;;;;;;;;;5012949;28;20419;-69
2022/12/06 08:11:04;;;;;;;17.63;7.10;;;;;;;;;;5010736;28;20423;-69
2022/12/06 08:13:30;;;;;;;15.75;7.97;;;;;;;;;;5012511;28;20018;-69
2022/12/06 08:15:55;;;;;;;18.85;7.82;;;;;;;;;;5014145;28;20420;-70
2022/12/06 08:18:20;;;;;;;20.92;8.80;;;;;;;;;;5012758;28;20026;-71
2022/12/06 08:20:46;;;;;;;18.35;7.28;;;;;;;;;;5011110;28;20018;-67
2022/12/06 08:23:11;;;;;;;16.42;7.72;;;;;;;;;;5011574;28;20395;-69
2022/12/06 08:25:36;;;;;;;20.95;8.50;;;;;;;;;;5012448;28;20026;-68
2022/12/06 08:28:02;;;;;;;24.48;9.13;;;;;;;;;;5011730;28;20018;-72
2022/12/06 08:30:30;;;;;;;26.25;9.30;;;;;;;;;;5012330;28;20480;-65
2022/12/06 08:32:55;;;;;;;25.17;10.18;;;;;;;;;;5011813;28;20045;-66
2022/12/06 08:35:21;;;;;;;20.60;8.52;;;;;;;;;;5012087;28;20507;-70
2022/12/06 08:37:46;;;;;;;25.20;9.50;;;;;;;;;;5011448;28;20102;-68
2022/12/06 08:40:11;;;;;;;22.15;9.48;;;;;;;;;;5014640;28;20017;-67
2022/12/06 08:42:36;;;;;;;25.10;9.52;;;;;;;;;;5011134;28;20026;-69
2022/12/06 08:45:02;;;;;;;28.17;10.05;;;;;;;;;;5010598;28;20017;-68
2022/12/06 08:47:27;;;;;;;21.15;9.05;;;;;;;;;;5015969;28;20117;-67
2022/12/06 08:49:52;;;;;;;20.33;8.75;;;;;;;;;;5011163;28;20020;-67
2022/12/06 08:52:17;;;;;;;24.73;8.88;;;;;;;;;;5010936;28;20093;-68
2022/12/06 08:54:43;;;;;;;23.13;9.50;;;;;;;;;;5004819;28;20033;-70
2022/12/06 08:57:08;;;;;;;21.60;9.32;;;;;;;;;;5009706;28;20018;-69
2022/12/06 08:59:33;;;;;;;21.02;8.32;;;;;;;;;;5012190;28;20030;-70
2022/12/06 09:01:58;;;;;;;22.95;8.68;;;;;;;;;;5024689;28;20026;-70
2022/12/06 09:04:24;;;;;;;25.48;9.07;;;;;;;;;;5012021;28;20065;-68
2022/12/06 09:06:49;;;;;;;26.65;9.30;;;;;;;;;;5011160;28;20038;-68
2022/12/06 09:09:15;;;;;;;23.20;8.82;;;;;;;;;;5012092;28;20030;-68
2022/12/06 09:11:41;;;;;;;18.27;8.32;;;;;;;;;;5011581;28;20526;-69
2022/12/06 09:14:08;;;;;;;19.70;8.48;;;;;;;;;;5010062;28;20108;-70
2022/12/06 09:16:33;;;;;;;20.63;8.80;;;;;;;;;;5011875;28;20033;-71
2022/12/06 09:18:58;;;;;;;26.70;9.27;;;;;;;;;;5011544;28;20084;-71
2022/12/06 09:21:25;;;;;;;27.45;8.93;;;;;;;;;;5011253;28;20076;-68
2022/12/06 09:23:53;;;;;;;23.75;10.02;;;;;;;;;;5011072;28;20021;-67
2022/12/06 09:26:18;;;;;;;19.57;8.97;;;;;;;;;;5012092;28;20079;-70
2022/12/06 09:28:45;;;;;;;20.48;8.75;;;;;;;;;;5013345;28;20018;-68
2022/12/06 09:31:10;;;;;;;17.98;8.23;;;;;;;;;;5013131;28;20483;-68
2022/12/06 09:33:36;;;;;;;21.27;9.52;;;;;;;;;;5010619;28;20033;-67
2022/12/06 09:36:11;;;;;;;25.02;9.75;;;;;;;;;;5016378;28;20091;-68
2022/12/06 09:38:37;;;;;;;18.60;9.60;;;;;;;;;;5010507;28;20022;-69
2022/12/06 09:41:21;;;;;;;18.73;8.85;;;;;;;;;;5010931;28;20024;-70
2022/12/06 09:43:58;;;;;;;24.77;9.10;;;;;;;;;;5013763;28;20503;-68
2022/12/06 09:46:23;;;;;;;18.75;8.90;;;;;;;;;;5011264;28;20021;-68
2022/12/06 09:49:01;;;;;;;19.25;8.88;;;;;;;;;;5009713;28;20484;-67
2022/12/06 09:51:49;;;;;;;19.23;8.80;;;;;;;;;;4998237;28;20026;-69
2022/12/06 09:54:24;;;;;;;16.47;8.70;;;;;;;;;;5010912;28;20040;-70
2022/12/06 09:57:12;;;;;;;17.20;8.40;;;;;;;;;;5017620;28;20074;-70
2022/12/06 09:59:40;;;;;;;15.35;7.30;;;;;;;;;;5009077;28;20025;-66
2022/12/06 10:02:08;;;;;;;16.33;7.00;;;;;;;;;;5010631;28;20096;-69
2022/12/06 10:04:52;;;;;;;15.50;6.55;;;;;;;;;;5009752;28;20121;-67
2022/12/06 10:07:17;;;;;;;13.38;5.93;;;;;;;;;;5005644;28;20029;-70
2022/12/06 10:09:51;;;;;;;13.57;6.20;;;;;;;;;;5012976;28;20026;-68
2022/12/06 10:12:26;;;;;;;11.98;5.70;;;;;;;;;;5011505;28;20030;-70
2022/12/06 10:14:51;;;;;;;11.57;5.55;;;;;;;;;;5002160;28;20022;-69
2022/12/06 10:17:26;;;;;;;16.02;5.85;;;;;;;;;;5009630;28;20369;-69
2022/12/06 10:19:52;;;;;;;13.85;6.03;;;;;;;;;;5008743;28;20026;-70
2022/12/06 10:22:34;;;;;;;12.90;5.95;;;;;;;;;;5010405;28;20022;-67
2022/12/06 10:25:02;;;;;;;10.38;5.53;;;;;;;;;;5008729;28;20546;-70
2022/12/06 10:27:27;;;;;;;12.25;5.47;;;;;;;;;;5009228;28;20018;-69
2022/12/06 10:29:55;;;;;;;12.77;5.95;;;;;;;;;;5000676;28;20071;-68
2022/12/06 10:32:31;;;;;;;10.43;5.45;;;;;;;;;;5010200;28;20006;-70
2022/12/06 10:35:10;;;;;;;9.77;4.93;;;;;;;;;;5015527;28;20022;-70
2022/12/06 10:37:41;;;;;;;8.73;5.10;;;;;;;;;;5000441;28;20033;-67
2022/12/06 10:40:15;;;;;;;12.32;5.75;;;;;;;;;;5008812;28;20531;-66
2022/12/06 10:42:43;;;;;;;11.48;5.55;;;;;;;;;;5003806;28;20037;-66
2022/12/06 10:48:01;;;;;;;10.55;5.45;;;;;;;;;;5014402;28;20052;-67
2022/12/06 10:50:29;;;;;;;13.32;5.40;;;;;;;;;;5009332;28;20024;-67
2022/12/06 10:52:57;;;;;;;13.13;6.10;;;;;;;;;;5012042;28;20022;-65
2022/12/06 10:55:49;;;;;;;14.48;5.57;;;;;;;;;;5006641;28;20041;-68
2022/12/06 10:58:17;;;;;;;10.27;5.22;;;;;;;;;;5020019;28;20030;-69
2022/12/06 11:00:51;;;;;;;11.77;5.43;;;;;;;;;;5021578;28;20018;-69
2022/12/06 11:03:25;;;;;;;14.05;5.97;;;;;;;;;;5013046;28;20022;-67
2022/12/06 11:05:58;;;;;;;11.75;5.68;;;;;;;;;;5013785;28;20556;-65
2022/12/06 11:08:32;;;;;;;13.18;6.13;;;;;;;;;;5022863;28;20021;-68
2022/12/06 11:10:58;;;;;;;9.60;5.22;;;;;;;;;;5013109;28;20040;-70
2022/12/06 11:13:30;;;;;;;9.25;5.10;;;;;;;;;;5013580;28;20026;-68
2022/12/06 11:15:59;;;;;;;10.85;5.75;;;;;;;;;;5012650;28;20511;-68
2022/12/06 11:18:26;;;;;;;13.15;5.82;;;;;;;;;;5012690;28;20543;-69
2022/12/06 11:20:57;;;;;;;11.15;5.57;;;;;;;;;;5012876;28;20021;-69
2022/12/06 11:23:28;;;;;;;10.02;5.50;;;;;;;;;;5008393;28;20021;-67
2022/12/06 11:26:03;;;;;;;12.02;5.72;;;;;;;;;;5012404;28;20022;-68
2022/12/06 11:28:40;;;;;;;12.32;6.28;;;;;;;;;;5012392;28;20018;-68
2022/12/06 11:31:19;;;;;;;10.65;5.43;;;;;;;;;;5012619;28;20018;-67
2022/12/06 11:33:45;;;;;;;13.75;5.60;;;;;;;;;;5013171;28;20037;-68
2022/12/06 11:36:10;;;;;;;14.32;6.05;;;;;;;;;;5018345;28;20030;-65
2022/12/06 11:38:38;;;;;;;12.48;5.80;;;;;;;;;;5011987;28;20637;-67
2022/12/06 11:41:05;;;;;;;9.70;5.40;;;;;;;;;;5010110;28;20021;-69
2022/12/06 11:43:34;;;;;;;9.68;5.47;;;;;;;;;;5012329;28;20105;-68
2022/12/06 11:46:00;;;;;;;12.95;5.50;;;;;;;;;;5011309;28;20014;-68
2022/12/06 11:48:27;;;;;;;11.00;5.00;;;;;;;;;;5012552;28;20483;-69
2022/12/06 11:50:53;;;;;;;10.93;5.38;;;;;;;;;;5011901;28;20084;-66
2022/12/06 11:53:22;;;;;;;10.80;5.45;;;;;;;;;;5012224;28;20022;-70
2022/12/06 11:55:48;;;;;;;11.52;5.32;;;;;;;;;;5011690;28;20026;-70
2022/12/06 11:58:32;;;;;;;10.15;4.85;;;;;;;;;;5019283;28;20476;-70
2022/12/06 12:01:12;;;;;;;10.35;4.45;;;;;;;;;;5020452;28;20084;-69
2022/12/06 12:03:39;;;;;;;9.43;4.75;;;;;;;;;;5010609;28;20033;-66
2022/12/06 12:06:25;;;;;;;13.13;5.88;;;;;;;;;;5011074;28;20052;-69
2022/12/06 12:08:54;;;;;;;13.18;5.82;;;;;;;;;;5021874;28;20026;-65
2022/12/06 12:11:21;;;;;;;10.63;5.70;;;;;;;;;;5012241;28;20022;-67
2022/12/06 12:13:51;;;;;;;12.23;5.65;;;;;;;;;;5011830;28;20026;-69
2022/12/06 12:16:24;;;;;;;12.18;5.97;;;;;;;;;;5010439;28;20403;-67
2022/12/06 12:18:49;;;;;;;11.82;5.85;;;;;;;;;;5011886;28;20014;-67
2022/12/06 12:21:15;;;;;;;14.02;6.50;;;;;;;;;;5011373;28;20057;-69
2022/12/06 12:23:44;;;;;;;15.38;5.75;;;;;;;;;;5011835;28;20022;-66
2022/12/06 12:26:09;;;;;;;;;;;;;;;;;;5011688;28;20073;-72
2022/12/06 12:28:37;;;;;;;12.80;5.32;;;;;;;;;;5016709;28;19955;-68
2022/12/06 12:31:19;;;;;;;10.82;5.32;;;;;;;;;;5012272;28;20144;-67
2022/12/06 12:33:44;;;;;;;9.32;5.20;;;;;;;;;;5002519;28;20025;-65
2022/12/06 12:36:21;;;;;;;8.00;4.25;;;;;;;;;;5010098;28;20680;-69
2022/12/06 12:38:54;;;;;;;9.10;4.55;;;;;;;;;;5011027;28;20025;-66
2022/12/06 12:41:19;;;;;;;7.88;4.05;;;;;;;;;;5009897;28;20017;-68
2022/12/06 12:43:51;;;;;;;7.25;4.05;;;;;;;;;;5008975;28;20029;-67
2022/12/06 12:46:19;;;;;;;8.27;4.28;;;;;;;;;;5010811;28;20018;-72
2022/12/06 12:48:45;;;;;;;8.07;4.53;;;;;;;;;;5009235;28;20021;-69
2022/12/06 12:51:22;;;;;;;9.60;4.00;;;;;;;;;;5012767;28;20061;-70
2022/12/06 12:53:52;;;;;;;8.15;3.95;;;;;;;;;;5010728;28;20084;-67
2022/12/06 12:56:19;;;;;;;10.98;4.63;;;;;;;;;;5009569;28;20030;-68
2022/12/06 12:58:48;;;;;;;8.00;4.32;;;;;;;;;;5010644;28;20029;-68
2022/12/06 13:01:40;;;;;;;9.45;4.50;;;;;;;;;;5011266;28;20064;-67
2022/12/06 13:04:11;;;;;;;6.80;4.05;;;;;;;;;;5004950;28;20060;-71
2022/12/06 13:06:51;;;;;;;7.07;3.97;;;;;;;;;;5008904;28;20026;-69
2022/12/06 13:09:19;;;;;;;8.27;4.30;;;;;;;;;;5012986;28;20080;-68
2022/12/06 13:11:47;;;;;;;8.20;4.07;;;;;;;;;;5010977;28;20083;-68
2022/12/06 13:14:16;;;;;;;9.20;4.33;;;;;;;;;;5011112;28;20026;-71
2022/12/06 13:16:42;;;;;;;7.85;3.97;;;;;;;;;;5011374;28;20022;-72
2022/12/06 13:19:12;;;;;;;10.00;5.25;;;;;;;;;;5011264;28;20087;-68
2022/12/06 13:21:39;;;;;;;11.13;4.57;;;;;;;;;;5010886;28;20033;-69
2022/12/06 13:24:13;;;;;;;8.75;4.00;;;;;;;;;;5010921;28;20025;-68
2022/12/06 13:26:41;;;;;;;7.75;4.50;;;;;;;;;;5016923;28;20499;-71
2022/12/06 13:29:12;;;;;;;8.55;4.13;;;;;;;;;;5015279;28;20022;-68
2022/12/06 13:31:39;;;;;;;6.35;3.60;;;;;;;;;;5012906;28;20053;-72
2022/12/06 13:34:12;;;;;;;8.75;4.53;;;;;;;;;;5013110;28;20056;-69
2022/12/06 13:36:37;;;;;;;7.28;4.47;;;;;;;;;;5010305;28;20033;-67
2022/12/06 13:39:21;;;;;;;9.80;3.90;;;;;;;;;;5010403;28;20018;-71
2022/12/06 13:44:54;;;;;;;8.77;4.22;;;;;;;;;;5011048;28;20404;-69
2022/12/06 13:47:25;;;;;;;8.52;4.30;;;;;;;;;;5015120;28;20028;-68
2022/12/06 13:49:52;;;;;;;7.55;4.28;;;;;;;;;;5012193;28;20028;-73
2022/12/06 13:52:49;;;;;;;10.07;4.97;;;;;;;;;;5006481;28;20025;-69
2022/12/06 13:55:23;;;;;;;8.25;4.07;;;;;;;;;;5009932;28;20045;-69
2022/12/06 13:57:49;;;;;;;8.15;4.20;;;;;;;;;;5013765;28;20022;-72
2022/12/06 14:00:30;;;;;;;7.43;4.20;;;;;;;;;;5007088;28;20014;-68
2022/12/06 14:02:57;;;;;;;9.15;4.30;;;;;;;;;;5017540;28;20377;-67
2022/12/06 14:05:41;;;;;;;7.47;4.18;;;;;;;;;;5010927;28;20072;-68
2022/12/06 14:08:09;;;;;;;9.98;4.75;;;;;;;;;;5015257;28;20033;-70
2022/12/06 14:10:35;;;;;;;6.40;3.60;;;;;;;;;;5014124;28;20063;-68
2022/12/06 14:13:00;;;;;;;7.35;3.83;;;;;;;;;;5012817;28;20025;-70
2022/12/06 14:15:25;;;;;;;8.23;4.25;;;;;;;;;;5015296;28;20087;-70
2022/12/06 14:17:51;;;;;;;7.03;3.83;;;;;;;;;;5009163;28;20097;-69
2022/12/06 14:20:20;;;;;;;7.50;4.38;;;;;;;;;;5011016;28;20033;-68
2022/12/06 14:22:46;;;;;;;7.65;3.70;;;;;;;;;;5015861;28;20407;-69
2022/12/06 14:25:14;;;;;;;6.15;3.40;;;;;;;;;;5010522;28;20661;-73
2022/12/06 14:27:44;;;;;;;8.55;4.18;;;;;;;;;;5012422;28;20578;-73
2022/12/06 14:30:13;;;;;;;7.88;4.00;;;;;;;;;;5011189;28;20084;-69
2022/12/06 14:32:43;;;;;;;6.82;3.40;;;;;;;;;;5013354;28;20014;-65
2022/12/06 14:35:16;;;;;;;7.03;4.03;;;;;;;;;;5013271;28;20029;-68
2022/12/06 14:37:47;;;;;;;9.05;3.65;;;;;;;;;;5014327;28;20562;-71
2022/12/06 14:43:24;;;;;;;5.93;3.53;;;;;;;;;;5017239;28;20084;-69
2022/12/06 14:45:51;;;;;;;6.32;3.67;;;;;;;;;;5013581;28;20029;-72
2022/12/06 14:48:16;;;;;;;7.07;4.20;;;;;;;;;;5014681;28;20040;-68
2022/12/06 14:50:53;;;;;;;6.45;3.72;;;;;;;;;;5006852;28;20053;-71
2022/12/06 14:53:35;;;;;;;6.75;3.58;;;;;;;;;;5010582;28;20448;-70
2022/12/06 14:56:00;;;;;;;8.80;4.28;;;;;;;;;;5009296;28;20038;-68
2022/12/06 14:58:45;;;;;;;9.32;4.10;;;;;;;;;;5007158;28;20010;-72
2022/12/06 15:01:15;;;;;;;9.57;4.72;;;;;;;;;;5011712;28;20183;-70
2022/12/06 15:03:40;;;;;;;8.55;4.38;;;;;;;;;;5008802;28;20579;-72
2022/12/06 15:06:14;;;;;;;11.15;5.00;;;;;;;;;;5011873;28;20117;-75
2022/12/06 15:08:47;;;;;;;8.23;3.80;;;;;;;;;;5010669;28;20558;-67
2022/12/06 15:12:53;;;;;;;8.00;4.30;;;;;;;;;;5015412;28;20799;-71
2022/12/06 15:14:12;;;;;;;8.07;4.03;;;;;;;;;;5010066;28;20057;-67